Newington, Connecticut
Current Conditions -  °F | °C
As of 10:53 AM on Thursday 29 Jan 2015 (Local Time) from KHFD Reporting Station
Clear Clear  
Wind Chill:   Ceiling: Unl
Heat Index: 17°   Visibility: 10mi
Dew Point:   Wind: 6mph
Humidity: 50%   Direction: NA
Pressure: 30.32"   Gusts: NA
Location:  41.7°N, 72.73°W
Report Text: KHFD 291553Z VRB05KT 10SM CLR M08/M17 A3032 RMK AO2 PRESFR SLP268 T10831172
Loading
Personal Weather Stations






























Interactive Weather Map New forecast layout! Learn more

10-Day Weather Forecast

Advertisements
Track Severe Weather on mobile